The Internet Pinball Serial Number Database or IPSND collects serial numbers of pinball machines and publishes a database of these on the Internet. Our goal is to make available a registration of all pinball machines in existence and allow tools for slicing, dicing and visualization of the data.

Games: 6,217  Serials: 47,682  Visitors: 24,996,803  Members: 3,499  Photos: 24,912  Lat/Lng: 24,243  Masks: 47,682(766.96 %)  Traits: 495  Nudges: 126,835  Backglasses: 1,862
  Most Serials: Twilight Zone(998)  Most Submissions: Rod McLarge(3,264)  Most Points: Rod McLarge(27,988)  Highest Quality: EM-fan(9.02)  Most Nudges: King of Pinball(17,101)
Submitter: Chris Cramer
Member Since: Wednesday, February 27, 2008
Submissions: 90 (41st)
SerialBot: 431 Points Total (39th), 4.52 Average Score (3,908th)
Nudges: 24(98th)
DateGameSerialNumberGame PartSerialBotDetails
10/2/2010 Big Bang Bar 2002842 Complete Game 2002842
10/1/2010 World Cup Soccer 53331108949 Complete Game 53331108949
10/1/2010 World Cup Soccer 50731102229 Complete Game 50731102229
10/1/2010 Whirlwind 574333346 Complete Game 574333346
10/1/2010 Whirlwind 574332746 Complete Game 574332746
10/1/2010 Wheel Of Fortune 215341 Complete Game 215341
10/1/2010 Theatre of Magic 53339105082 Complete Game 53339105082
10/1/2010 Theatre of Magic 53339104581 Complete Game 53339104581
10/1/2010 Terminator 2: Judgment Day 50013774470 Complete Game 50013774470
10/1/2010 Star Trek: The Next Generation 53323349482 Complete Game 53323349482
10/1/2010 Star Trek: The Next Generation 53323463421 Complete Game 53323463421
10/1/2010 Spider-Man™ 224192 Complete Game 224192
10/1/2010 The Party Zone 20004840594 Complete Game 20004840594
10/1/2010 NBA Fastbreak 53353103797 Complete Game 53353103797
10/1/2010 NBA Fastbreak 53353103718 Complete Game 53353103718
10/1/2010 The Machine: Bride of Pin·bot 50002660283 Complete Game 50002660283
10/1/2010 The Machine: Bride of Pin·bot 50002661036 Complete Game 50002661036
10/1/2010 Johnny Mnemonic 53342100389 Complete Game 53342100389
10/1/2010 Johnny Mnemonic 53342102540 Complete Game 53342102540
10/1/2010 Hurricane 50012830255 Complete Game 50012830255
10/1/2010 Harley-Davidson 20001650495 Complete Game 20001650495
10/1/2010 Gilligan's Island 20003767307 Complete Game 20003767307
10/1/2010 The Getaway: High Speed II 50004095143 Complete Game 50004095143
10/1/2010 The Getaway: High Speed II 50004090303 Complete Game 50004090303
10/1/2010 Funhouse 50003570783 Complete Game 50003570783
10/1/2010 Flipper Football 2003571 Complete Game 2003571
10/1/2010 Fish Tales 50005021648 Complete Game 50005021648
10/1/2010 Family Guy 208963 Complete Game 208963
10/1/2010 Elvira and the Party Monsters 2011282306 Complete Game 2011282306
10/1/2010 Earthshaker 568210058 Complete Game 568210058
10/1/2010 Bram Stoker's Dracula 52701109362 Complete Game 52701109362
10/1/2010 Doctor Who 20006060202 Complete Game 20006060202
10/1/2010 Dirty Harry 51530111265 Complete Game 51530111265
10/1/2010 Congo 50250100412 Complete Game 50250100412
10/1/2010 Iron Man 225881 Complete Game 225881
2/27/2008 Tales of the Arabian Nights 53347102651 Complete Game 53347102651
2/27/2008 Tales of the Arabian Nights 50247102562 Complete Game 50247102562
2/27/2008 Tales of the Arabian Nights 50247100632 Complete Game 50247100632
2/27/2008 Tales of the Arabian Nights 50247102040 Complete Game 50247102040
2/27/2008 No Fear: Dangerous Sports 53325104832 Complete Game 53325104832
2/27/2008 No Fear: Dangerous Sports 53325103860 Complete Game 53325103860
2/27/2008 Medieval Madness 53359101579 Complete Game 53359101579
2/27/2008 Judge Dredd 23320248202 Complete Game 23320248202
2/27/2008 Judge Dredd 21820244822 Complete Game 21820244822
2/27/2008 Indiana Jones: The Pinball Adventure 53317315361 Complete Game 53317315361
2/27/2008 Indiana Jones: The Pinball Adventure 52817082372 Complete Game 52817082372
2/27/2008 Black Rose 20013I965249 Complete Game 20013I965249
2/27/2008 Creature from the Black Lagoon 20218901020 Complete Game 20218901020
2/27/2008 Corvette 53336104995 Complete Game 53336104995
2/27/2008 Junk Yard 53352103091 Complete Game 53352103091
2/27/2008 Junk Yard 50252102391 Complete Game 50252102391
2/27/2008 Junk Yard 53352100093 Complete Game 53352100093
2/27/2008 NBA Fastbreak 53353104570 Complete Game 53353104570
2/27/2008 Monster Bash 53365400984 Complete Game 53365400984
2/27/2008 WHO dunnit 53344100192 Complete Game 53344100192
2/27/2008 White Water 50118828960 Complete Game 50118828960
2/27/2008 Twilight Zone X970005 Complete Game X970005
2/27/2008 Twilight Zone 53220146551 Complete Game 53220146551
2/27/2008 Twilight Zone 53220170501 Complete Game 53220170501
2/27/2008 Twilight Zone 52720128781 Complete Game 52720128781
2/27/2008 Twilight Zone 52920977190 Complete Game 52920977190
2/27/2008 Popeye Saves the Earth 53322331452 Complete Game 53322331452
2/27/2008 The Shadow 53332104255 Complete Game 53332104255
2/27/2008 Scared Stiff 53348102358 Complete Game 53348102358
2/27/2008 Scared Stiff 53348100077 Complete Game 53348100077
2/27/2008 Scared Stiff 53348102450 Complete Game 53348102450
2/27/2008 Star Wars Episode I 53369104549 Complete Game 53369104549
2/27/2008 Star Wars Episode I 53369102310 Complete Game 53369102310
2/27/2008 Revenge From Mars 53370112467 Complete Game 53370112467
2/27/2008 Pirates of the Caribbean 203827 Complete Game 203827
2/27/2008 Monopoly™ 160498 Complete Game 160498
2/27/2008 The Lord of the Rings 189229 Complete Game 189229
2/27/2008 RollerCoaster Tycoon 169047 Complete Game 169047
2/27/2008 Safe Cracker 93303100280 Complete Game 93303100280
2/27/2008 Safe Cracker 93303100264 Complete Game 93303100264
2/27/2008 Safe Cracker 93303100024 Complete Game 93303100024
2/27/2008 Jack·Bot 53351102320 Complete Game 53351102320
2/27/2008 Jack·Bot 53351100155 Complete Game 53351100155
2/27/2008 Cirqus Voltaire 53362401121 Complete Game 53362401121
2/27/2008 The Champion Pub 53363402037 Complete Game 53363402037
2/27/2008 The Flintstones 53329104910 Complete Game 53329104910
2/27/2008 Cactus Canyon 53366400245 Complete Game 53366400245
2/27/2008 Attack from Mars 53341104203 Complete Game 53341104203
2/27/2008 The Addams Family Special Collectors Edition 53338410542 Complete Game 53338410542
2/27/2008 Red & Ted's Road Show 53624100004 Complete Game 53624100004
2/27/2008 Demolition Man 53328351512 Complete Game 53328351512
2/27/2008 Kingpin PBX10099 Complete Game PBX10099
2/27/2008 No Good Gofers 53361402218 Complete Game 53361402218
2/27/2008 No Good Gofers 53361402316 Complete Game 53361402316
2/27/2008 No Good Gofers 53361401488 Complete Game 53361401488

Supported Browsers
Back 5 | Random | Forward 5 | List ]